createdAt,value
2023-02-05T00:02:06.365Z,17.64
2023-02-05T00:04:42.342Z,17.60
2023-02-05T00:07:14.235Z,17.58
2023-02-05T00:09:43.735Z,17.51
2023-02-05T00:12:44.686Z,17.56
2023-02-05T00:15:53.786Z,17.55
2023-02-05T00:18:37.747Z,17.50
2023-02-05T00:21:12.802Z,17.46
2023-02-05T00:23:56.918Z,17.45
2023-02-05T00:26:24.356Z,17.36
2023-02-05T00:29:24.238Z,17.31
2023-02-05T00:31:57.362Z,17.29
2023-02-05T00:34:27.844Z,17.29
2023-02-05T00:37:06.454Z,17.24
2023-02-05T00:39:41.258Z,17.19
2023-02-05T00:42:24.913Z,17.14
2023-02-05T00:45:07.262Z,17.05
2023-02-05T00:50:35.108Z,16.89
2023-02-05T00:53:05.337Z,16.88
2023-02-05T00:55:54.604Z,16.82
2023-02-05T00:58:32.915Z,16.86
2023-02-05T01:03:54.858Z,16.74
2023-02-05T01:06:27.063Z,16.75
2023-02-05T01:09:07.974Z,16.70
2023-02-05T01:14:31.064Z,16.64
2023-02-05T01:16:58.514Z,16.61
2023-02-05T01:19:27.864Z,16.61
2023-02-05T01:22:24.779Z,16.55
2023-02-05T01:25:03.329Z,16.46
2023-02-05T01:27:42.720Z,16.36
2023-02-05T01:30:14.232Z,16.38
2023-02-05T01:33:03.654Z,16.35
2023-02-05T01:35:46.116Z,16.41
2023-02-05T01:38:25.902Z,16.40
2023-02-05T01:40:56.549Z,16.30
2023-02-05T01:43:27.785Z,16.29
2023-02-05T01:46:09.101Z,16.26
2023-02-05T01:49:09.645Z,16.24
2023-02-05T01:52:15.796Z,16.24
2023-02-05T01:55:06.006Z,16.21
2023-02-05T01:57:38.190Z,16.22
2023-02-05T02:00:10.038Z,16.22
2023-02-05T02:02:50.492Z,16.18
2023-02-05T02:05:21.410Z,16.21
2023-02-05T02:07:59.743Z,16.16
2023-02-05T02:10:43.060Z,16.13
2023-02-05T02:13:29.025Z,16.10
2023-02-05T02:16:14.884Z,15.96
2023-02-05T02:18:50.134Z,15.97
2023-02-05T02:21:49.718Z,15.96
2023-02-05T02:25:03.550Z,15.93
2023-02-05T02:27:41.059Z,15.87
2023-02-05T02:30:33.430Z,15.89
2023-02-05T02:33:44.744Z,15.81
2023-02-05T02:36:24.708Z,15.85
2023-02-05T02:39:48.344Z,15.75
2023-02-05T02:42:58.128Z,15.73
2023-02-05T02:45:33.043Z,15.74
2023-02-05T02:48:13.176Z,15.72
2023-02-05T02:50:55.371Z,15.71
2023-02-05T02:53:40.355Z,15.71
2023-02-05T02:56:25.163Z,15.72
2023-02-05T02:59:22.806Z,15.64
2023-02-05T03:02:13.292Z,15.62
2023-02-05T03:05:05.234Z,15.60
2023-02-05T03:08:02.405Z,15.61
2023-02-05T03:11:04.772Z,15.45
2023-02-05T03:13:40.173Z,15.40
2023-02-05T03:16:19.481Z,15.42
2023-02-05T03:19:03.958Z,15.45
2023-02-05T03:21:40.286Z,15.41
2023-02-05T03:24:13.552Z,15.49
2023-02-05T03:26:42.346Z,15.45
2023-02-05T03:29:47.607Z,15.45
2023-02-05T03:32:47.681Z,15.44
2023-02-05T03:35:47.169Z,15.46
2023-02-05T03:41:57.483Z,15.11
2023-02-05T03:48:23.889Z,15.34
2023-02-05T03:51:26.733Z,15.28
2023-02-05T03:54:44.858Z,15.25
2023-02-05T03:57:35.926Z,15.34
2023-02-05T04:00:06.532Z,15.40
2023-02-05T04:02:42.180Z,15.31
2023-02-05T04:05:13.725Z,15.52
2023-02-05T04:07:45.992Z,15.58
2023-02-05T04:10:13.657Z,15.53
2023-02-05T04:12:41.729Z,15.54
2023-02-05T04:15:11.002Z,15.64
2023-02-05T04:17:41.940Z,15.73
2023-02-05T04:20:12.903Z,15.74
2023-02-05T04:22:40.471Z,15.76
2023-02-05T04:25:10.620Z,15.77
2023-02-05T04:27:43.426Z,15.70
2023-02-05T04:30:11.801Z,15.61
2023-02-05T04:32:43.104Z,15.61
2023-02-05T04:35:11.466Z,15.56
2023-02-05T04:37:39.168Z,15.48
2023-02-05T04:40:10.342Z,15.49
2023-02-05T04:42:37.704Z,15.34
2023-02-05T04:45:11.990Z,15.21
2023-02-05T04:47:39.338Z,15.36
2023-02-05T04:50:09.774Z,15.26
2023-02-05T04:52:39.263Z,15.20
2023-02-05T04:55:09.796Z,15.04
2023-02-05T04:57:39.823Z,15.20
2023-02-05T05:00:10.347Z,15.17
2023-02-05T05:02:41.115Z,15.02
2023-02-05T05:05:12.257Z,15.05
2023-02-05T05:07:42.636Z,14.90
2023-02-05T05:10:12.411Z,14.84
2023-02-05T05:12:42.675Z,14.78
2023-02-05T05:15:14.339Z,14.73
2023-02-05T05:17:41.730Z,14.49
2023-02-05T05:20:12.690Z,14.35
2023-02-05T05:22:40.290Z,14.38
2023-02-05T05:25:07.685Z,14.51
2023-02-05T05:27:35.482Z,14.51
2023-02-05T05:30:06.318Z,14.38
2023-02-05T05:32:36.560Z,14.52
2023-02-05T05:35:06.873Z,14.50
2023-02-05T05:37:34.117Z,14.53
2023-02-05T05:40:19.570Z,14.30
2023-02-05T05:43:05.255Z,14.23
2023-02-05T05:45:32.985Z,14.11
2023-02-05T05:48:00.562Z,13.91
2023-02-05T05:50:31.071Z,13.95
2023-02-05T05:53:01.738Z,14.03
2023-02-05T05:55:29.018Z,14.12
2023-02-05T05:57:56.523Z,13.97
2023-02-05T06:00:26.969Z,13.96
2023-02-05T06:02:54.159Z,13.82
2023-02-05T06:05:22.888Z,13.79
2023-02-05T06:07:50.852Z,13.76
2023-02-05T06:10:18.613Z,13.81
2023-02-05T06:12:49.150Z,13.63
2023-02-05T06:15:16.758Z,13.70
2023-02-05T06:17:46.932Z,13.97
2023-02-05T06:20:17.997Z,13.88
2023-02-05T06:22:45.750Z,14.05
2023-02-05T06:25:13.619Z,13.98
2023-02-05T06:27:44.216Z,14.10
2023-02-05T06:30:12.097Z,14.15
2023-02-05T06:32:39.563Z,14.17
2023-02-05T06:35:12.296Z,14.09
2023-02-05T06:37:47.074Z,14.16
2023-02-05T06:40:22.792Z,14.22
2023-02-05T06:42:50.393Z,14.17
2023-02-05T06:45:17.668Z,14.10
2023-02-05T06:47:48.204Z,14.07
2023-02-05T06:50:21.158Z,13.93
2023-02-05T06:52:51.329Z,14.09
2023-02-05T06:55:22.038Z,14.12
2023-02-05T06:57:51.863Z,13.98
2023-02-05T07:00:22.276Z,14.02
2023-02-05T07:02:49.696Z,14.04
2023-02-05T07:05:17.167Z,13.85
2023-02-05T07:07:44.310Z,13.75
2023-02-05T07:10:11.525Z,13.81
2023-02-05T07:12:38.789Z,13.78
2023-02-05T07:15:06.253Z,13.59
2023-02-05T07:17:33.977Z,13.55
2023-02-05T07:20:05.003Z,13.29
2023-02-05T07:22:32.196Z,13.44
2023-02-05T07:25:08.485Z,13.13
2023-02-05T07:27:46.455Z,13.16
2023-02-05T07:30:20.548Z,13.11
2023-02-05T07:32:51.280Z,13.24
2023-02-05T07:35:21.775Z,13.42
2023-02-05T07:37:57.415Z,13.26
2023-02-05T07:40:28.055Z,13.29
2023-02-05T07:43:03.946Z,13.33
2023-02-05T07:45:36.833Z,13.26
2023-02-05T07:48:09.991Z,13.32
2023-02-05T07:50:44.154Z,13.22
2023-02-05T07:53:14.988Z,13.04
2023-02-05T07:55:51.229Z,13.25
2023-02-05T07:58:21.485Z,13.45
2023-02-05T08:00:52.001Z,13.32
2023-02-05T08:03:22.504Z,13.38
2023-02-05T08:05:50.918Z,13.25
2023-02-05T08:08:20.742Z,13.34
2023-02-05T08:10:48.688Z,13.28
2023-02-05T08:13:15.958Z,13.08
2023-02-05T08:15:45.774Z,13.15
2023-02-05T08:18:13.661Z,13.18
2023-02-05T08:20:41.129Z,13.19
2023-02-05T08:23:15.555Z,13.19
2023-02-05T08:25:45.624Z,13.27
2023-02-05T08:28:20.108Z,13.26
2023-02-05T08:31:03.540Z,13.43
2023-02-05T08:33:47.272Z,13.52
2023-02-05T08:36:27.604Z,13.53
2023-02-05T08:39:06.640Z,13.64
2023-02-05T08:41:39.690Z,13.76
2023-02-05T08:44:21.248Z,13.93
2023-02-05T08:46:54.348Z,14.08
2023-02-05T08:49:22.386Z,14.62
2023-02-05T08:51:52.837Z,14.83
2023-02-05T08:54:20.962Z,15.18
2023-02-05T08:56:57.110Z,15.44
2023-02-05T08:59:24.748Z,15.97
2023-02-05T09:01:54.916Z,16.40
2023-02-05T09:04:51.440Z,16.71
2023-02-05T09:07:33.789Z,16.90
2023-02-05T09:10:04.019Z,17.27
2023-02-05T09:12:31.519Z,17.56
2023-02-05T09:15:01.501Z,17.86
2023-02-05T09:17:31.769Z,18.27
2023-02-05T09:20:01.963Z,18.45
2023-02-05T09:22:37.204Z,18.76
2023-02-05T09:25:15.430Z,18.68
2023-02-05T09:27:54.149Z,18.82
2023-02-05T09:30:24.294Z,18.89
2023-02-05T09:32:52.300Z,18.98
2023-02-05T09:35:19.728Z,19.26
2023-02-05T09:37:50.856Z,19.21
2023-02-05T09:40:26.786Z,19.53
2023-02-05T09:43:32.662Z,19.97
2023-02-05T09:46:27.310Z,20.28
2023-02-05T09:49:19.155Z,20.38
2023-02-05T09:52:31.737Z,20.56
2023-02-05T09:55:05.067Z,20.63
2023-02-05T09:57:40.682Z,20.77
2023-02-05T10:00:44.066Z,21.08
2023-02-05T10:03:50.341Z,21.38
2023-02-05T10:06:58.076Z,21.67
2023-02-05T10:10:07.118Z,22.08
2023-02-05T10:13:12.554Z,22.45
2023-02-05T10:16:27.446Z,22.80
2023-02-05T10:19:05.806Z,23.12
2023-02-05T10:21:51.667Z,23.37
2023-02-05T10:24:58.664Z,23.42
2023-02-05T10:27:57.264Z,23.69
2023-02-05T10:30:36.726Z,23.86
2023-02-05T10:33:17.412Z,24.22
2023-02-05T10:35:51.078Z,24.49
2023-02-05T10:38:26.057Z,24.47
2023-02-05T10:41:07.725Z,24.63
2023-02-05T10:43:45.274Z,24.87
2023-02-05T10:46:17.812Z,25.15
2023-02-05T10:48:51.470Z,25.40
2023-02-05T10:51:40.738Z,25.33
2023-02-05T10:54:30.917Z,25.67
2023-02-05T10:56:59.746Z,25.85
2023-02-05T10:59:39.091Z,26.22
2023-02-05T11:02:13.244Z,26.32
2023-02-05T11:05:13.366Z,26.49
2023-02-05T11:08:02.654Z,25.85
2023-02-05T11:10:39.043Z,26.64
2023-02-05T11:13:28.849Z,26.79
2023-02-05T11:22:25.404Z,28.15
2023-02-05T11:25:56.096Z,28.30
2023-02-05T11:28:36.285Z,28.64
2023-02-05T11:32:03.458Z,28.82
2023-02-05T11:34:38.805Z,29.04
2023-02-05T11:37:21.593Z,29.29
2023-02-05T11:42:52.733Z,29.69
2023-02-05T11:45:25.172Z,30.01
2023-02-05T11:48:09.791Z,30.31
2023-02-05T11:50:40.596Z,30.46
2023-02-05T11:53:26.957Z,30.57
2023-02-05T11:56:19.165Z,30.45
2023-02-05T12:03:05.695Z,30.91
2023-02-05T12:08:48.220Z,31.19
2023-02-05T12:12:36.678Z,30.43
2023-02-05T12:19:00.979Z,29.48
2023-02-05T12:21:49.879Z,27.74
2023-02-05T12:25:00.108Z,29.54
2023-02-05T12:28:03.753Z,30.56
2023-02-05T12:31:03.534Z,30.74
2023-02-05T12:37:48.128Z,29.10
2023-02-05T12:40:44.429Z,29.87
2023-02-05T12:43:42.001Z,30.35
2023-02-05T12:47:07.034Z,30.34
2023-02-05T12:49:44.021Z,30.43
2023-02-05T12:52:37.298Z,30.65
2023-02-05T12:55:26.845Z,29.91
2023-02-05T12:58:05.627Z,30.52
2023-02-05T13:00:55.720Z,30.67
2023-02-05T13:03:49.852Z,31.22
2023-02-05T13:06:35.392Z,30.76
2023-02-05T13:09:49.819Z,30.63
2023-02-05T13:12:24.362Z,30.02
2023-02-05T13:15:19.498Z,31.24
2023-02-05T13:18:34.370Z,30.39
2023-02-05T13:21:41.440Z,31.26
2023-02-05T13:25:12.931Z,31.17
2023-02-05T13:28:17.677Z,31.55
2023-02-05T13:30:57.608Z,32.02
2023-02-05T13:33:31.727Z,31.52
2023-02-05T13:36:39.522Z,31.96
2023-02-05T13:39:41.119Z,32.08
2023-02-05T13:42:36.720Z,31.92
2023-02-05T13:45:28.609Z,32.20
2023-02-05T13:48:30.274Z,32.44
2023-02-05T13:51:22.401Z,32.39
2023-02-05T13:53:58.566Z,31.43
2023-02-05T13:56:47.298Z,31.60
2023-02-05T13:59:57.071Z,31.16
2023-02-05T14:02:43.834Z,29.13
2023-02-05T14:05:16.577Z,28.98
2023-02-05T14:07:54.715Z,29.24
2023-02-05T14:10:45.125Z,28.53
2023-02-05T14:13:32.813Z,28.18
2023-02-05T14:16:27.857Z,27.52
2023-02-05T14:19:13.157Z,27.93
2023-02-05T14:22:10.463Z,27.26
2023-02-05T14:24:51.255Z,27.46
2023-02-05T14:27:45.438Z,26.54
2023-02-05T14:31:01.793Z,26.42
2023-02-05T14:33:45.558Z,26.05
2023-02-05T14:36:23.954Z,25.23
2023-02-05T14:38:53.819Z,24.95
2023-02-05T14:41:22.062Z,24.94
2023-02-05T14:44:31.925Z,24.61
2023-02-05T14:47:30.031Z,25.28
2023-02-05T14:50:14.997Z,24.87
2023-02-05T14:52:53.714Z,24.90
2023-02-05T14:55:29.259Z,24.55
2023-02-05T14:58:09.859Z,23.77
2023-02-05T15:00:50.059Z,24.54
2023-02-05T15:03:42.223Z,23.87
2023-02-05T15:06:20.433Z,23.58
2023-02-05T15:09:04.473Z,22.94
2023-02-05T15:12:11.978Z,23.32
2023-02-05T15:15:02.686Z,22.67
2023-02-05T15:17:30.048Z,22.43
2023-02-05T15:20:22.674Z,22.37
2023-02-05T15:22:59.737Z,22.18
2023-02-05T15:25:40.478Z,21.97
2023-02-05T15:28:32.130Z,21.94
2023-02-05T15:31:23.020Z,21.82
2023-02-05T15:34:35.171Z,21.33
2023-02-05T15:37:20.318Z,21.82
2023-02-05T15:40:11.214Z,21.21
2023-02-05T15:42:50.444Z,20.62
2023-02-05T15:45:49.175Z,20.59
2023-02-05T15:48:45.000Z,21.10
2023-02-05T15:51:44.476Z,20.52
2023-02-05T15:54:22.147Z,20.65
2023-02-05T15:56:57.221Z,21.09
2023-02-05T15:59:39.192Z,20.44
2023-02-05T16:02:23.065Z,19.61
2023-02-05T16:05:19.498Z,20.00
2023-02-05T16:08:00.710Z,19.80
2023-02-05T16:10:36.335Z,19.79
2023-02-05T16:13:15.692Z,19.22
2023-02-05T16:15:53.615Z,19.76
2023-02-05T16:18:59.180Z,20.04
2023-02-05T16:21:43.695Z,19.41
2023-02-05T16:24:27.483Z,19.72
2023-02-05T16:27:44.982Z,19.96
2023-02-05T16:30:46.245Z,19.68
2023-02-05T16:33:27.849Z,19.34
2023-02-05T16:36:08.472Z,19.11
2023-02-05T16:38:37.137Z,18.53
2023-02-05T16:41:22.859Z,18.47
2023-02-05T16:47:27.005Z,18.03
2023-02-05T16:53:44.392Z,18.16
2023-02-05T16:56:24.080Z,18.40
2023-02-05T16:59:06.236Z,18.34
2023-02-05T17:01:45.346Z,18.24
2023-02-05T17:04:40.831Z,17.66
2023-02-05T17:07:23.424Z,17.85
2023-02-05T17:09:51.832Z,17.78
2023-02-05T17:12:46.283Z,17.78
2023-02-05T17:15:34.289Z,17.87
2023-02-05T17:18:34.557Z,17.69
2023-02-05T17:21:32.116Z,17.81
2023-02-05T17:24:12.245Z,17.42
2023-02-05T17:26:51.228Z,17.84
2023-02-05T17:29:24.042Z,17.01
2023-02-05T17:31:59.868Z,16.81
2023-02-05T17:34:35.280Z,17.22
2023-02-05T17:40:20.442Z,16.91
2023-02-05T17:42:48.172Z,17.04
2023-02-05T17:45:53.241Z,17.24
2023-02-05T17:48:28.947Z,17.19
2023-02-05T17:51:06.001Z,17.45
2023-02-05T17:53:39.231Z,17.53
2023-02-05T17:56:13.547Z,17.63
2023-02-05T18:01:25.263Z,17.63
2023-02-05T18:04:04.483Z,17.69
2023-02-05T18:06:38.990Z,17.65
2023-02-05T18:09:15.225Z,17.80
2023-02-05T18:12:13.607Z,17.54
2023-02-05T18:14:52.378Z,17.68
2023-02-05T18:17:25.160Z,17.87
2023-02-05T18:20:01.506Z,17.80
2023-02-05T18:22:39.516Z,17.89
2023-02-05T18:25:20.093Z,17.64
2023-02-05T18:27:52.911Z,17.89
2023-02-05T18:30:22.653Z,17.86
2023-02-05T18:32:50.253Z,17.68
2023-02-05T18:36:04.336Z,17.80
2023-02-05T18:38:34.829Z,17.67
2023-02-05T18:41:12.547Z,17.63
2023-02-05T18:43:53.680Z,17.65
2023-02-05T18:46:24.175Z,17.65
2023-02-05T18:48:52.957Z,17.66
2023-02-05T18:51:31.516Z,17.51
2023-02-05T18:54:07.240Z,17.62
2023-02-05T18:56:45.022Z,17.74
2023-02-05T18:59:21.302Z,17.74
2023-02-05T19:01:54.851Z,17.80
2023-02-05T19:04:33.095Z,17.86
2023-02-05T19:07:03.828Z,17.92
2023-02-05T19:09:34.033Z,17.96
2023-02-05T19:12:01.439Z,17.96
2023-02-05T19:14:29.296Z,18.00
2023-02-05T19:16:56.903Z,17.96
2023-02-05T19:19:31.426Z,17.77
2023-02-05T19:22:06.853Z,17.74
2023-02-05T19:24:39.353Z,17.71
2023-02-05T19:27:13.497Z,17.65
2023-02-05T19:29:46.991Z,17.63
2023-02-05T19:32:20.888Z,17.59
2023-02-05T19:34:57.563Z,17.49
2023-02-05T19:37:32.462Z,17.56
2023-02-05T19:40:00.158Z,17.64
2023-02-05T19:42:31.531Z,17.63
2023-02-05T19:44:59.103Z,17.66
2023-02-05T19:47:36.294Z,17.66
2023-02-05T19:50:03.699Z,17.66
2023-02-05T19:52:30.982Z,17.56
2023-02-05T19:55:06.937Z,17.55
2023-02-05T19:57:41.267Z,17.49
2023-02-05T20:00:12.542Z,17.53
2023-02-05T20:02:51.166Z,17.54
2023-02-05T20:05:23.373Z,17.56
2023-02-05T20:07:58.626Z,17.57
2023-02-05T20:10:38.074Z,17.52
2023-02-05T20:13:07.787Z,17.56
2023-02-05T20:18:20.649Z,17.47
2023-02-05T20:20:51.029Z,17.50
2023-02-05T20:23:21.550Z,17.45
2023-02-05T20:25:57.867Z,17.43
2023-02-05T20:28:28.973Z,17.43
2023-02-05T20:31:14.733Z,17.39
2023-02-05T20:33:51.944Z,17.32
2023-02-05T20:36:25.367Z,17.31
2023-02-05T20:39:07.393Z,17.24
2023-02-05T20:41:43.193Z,17.20
2023-02-05T20:44:11.976Z,17.18
2023-02-05T20:46:39.387Z,17.16
2023-02-05T20:49:27.145Z,17.07
2023-02-05T20:51:55.048Z,17.09
2023-02-05T20:54:23.396Z,17.00
2023-02-05T20:57:02.037Z,16.91
2023-02-05T20:59:34.870Z,16.98
2023-02-05T21:02:02.997Z,16.97
2023-02-05T21:04:31.443Z,16.93
2023-02-05T21:06:58.976Z,16.94
2023-02-05T21:09:29.591Z,16.89
2023-02-05T21:11:58.264Z,16.93
2023-02-05T21:14:25.457Z,16.88
2023-02-05T21:16:56.076Z,16.89
2023-02-05T21:19:28.022Z,16.77
2023-02-05T21:21:59.768Z,16.81
2023-02-05T21:24:33.110Z,16.80
2023-02-05T21:27:01.368Z,16.76
2023-02-05T21:29:28.799Z,16.79
2023-02-05T21:31:56.240Z,16.75
2023-02-05T21:34:28.267Z,16.71
2023-02-05T21:36:59.747Z,16.61
2023-02-05T21:39:30.363Z,16.53
2023-02-05T21:42:04.340Z,16.41
2023-02-05T21:44:34.118Z,16.38
2023-02-05T21:47:12.263Z,16.39
2023-02-05T21:49:57.713Z,16.37
2023-02-05T21:52:33.890Z,16.34
2023-02-05T21:55:11.142Z,16.27
2023-02-05T21:57:40.906Z,16.26
2023-02-05T22:00:09.162Z,16.20
2023-02-05T22:02:42.326Z,16.13
2023-02-05T22:05:15.081Z,16.16
2023-02-05T22:07:47.152Z,16.13
2023-02-05T22:10:20.391Z,16.13
2023-02-05T22:12:53.386Z,16.14
2023-02-05T22:15:23.758Z,16.10
2023-02-05T22:17:56.440Z,16.11
2023-02-05T22:20:28.150Z,16.09
2023-02-05T22:23:01.722Z,16.04
2023-02-05T22:25:29.194Z,16.07
2023-02-05T22:28:13.872Z,16.08
2023-02-05T22:30:47.373Z,16.03
2023-02-05T22:33:20.894Z,16.00
2023-02-05T22:35:57.874Z,15.99
2023-02-05T22:38:38.600Z,15.96
2023-02-05T22:41:21.126Z,15.88
2023-02-05T22:43:48.711Z,15.89
2023-02-05T22:46:27.555Z,15.81
2023-02-05T22:48:59.044Z,15.80
2023-02-05T22:51:35.358Z,15.75
2023-02-05T22:54:06.655Z,15.77
2023-02-05T22:56:39.106Z,15.72
2023-02-05T22:59:21.438Z,15.74
2023-02-05T23:01:51.505Z,15.74
2023-02-05T23:04:27.357Z,15.72
2023-02-05T23:06:54.624Z,15.71
2023-02-05T23:09:21.968Z,15.69
2023-02-05T23:11:49.223Z,15.73
2023-02-05T23:14:19.843Z,15.75
2023-02-05T23:16:51.711Z,15.75
2023-02-05T23:19:29.509Z,15.77
2023-02-05T23:21:56.831Z,15.69
2023-02-05T23:24:23.999Z,15.73
2023-02-05T23:26:53.747Z,15.76
2023-02-05T23:29:21.383Z,15.69
2023-02-05T23:31:54.689Z,15.62
2023-02-05T23:34:26.753Z,15.67
2023-02-05T23:37:07.050Z,15.69
2023-02-05T23:39:41.065Z,15.68
2023-02-05T23:42:18.829Z,15.64
2023-02-05T23:44:47.296Z,15.69
2023-02-05T23:47:14.963Z,15.65
2023-02-05T23:49:45.071Z,15.67
2023-02-05T23:52:12.282Z,15.65
2023-02-05T23:54:41.089Z,15.67
2023-02-05T23:57:18.254Z,15.65
2023-02-05T23:59:51.274Z,15.68
